Weather History for Johnstown, PA

Change the Weather History Date:

Saturday, February 16, 2013

  Actual Average Record
Temperature  
Mean Temperature 20 °F 27 °F  
Max Temperature 25 °F 34 °F 74 °F (1921)
Min Temperature 14 °F 20 °F -10 °F (1943)
Degree Days  
Heating Degree Days 45 38  
Month to date heating degree days 625  
Since 1 July heating degree days 4442  
Cooling Degree Days 0 0  
Month to date cooling degree days 0  
Year to date cooling degree days 0  
Moisture  
Dew Point 16 °F    
Average Humidity 85    
Maximum Humidity 100    
Minimum Humidity 66    
Precipitation  
Precipitation 0.01 in 0.08 in 0.90 in (1993)
Month to date precipitation 1.33  
Year to date precipitation 4.21  
Sea Level Pressure  
Sea Level Pressure 29.90 in    
Wind  
Wind Speed 8 mph (NW)    
Max Wind Speed 16 mph    
Max Gust Speed 21 mph    
Visibility 5 miles    
Events Snow    
T = Trace of Precipitation, MM = Missing Value Source: NWS Daily Summary

Daily Weather History Graph

Daily Weather History Graph

Search for Another Location

Airport:

Trip Planner

Search our weather history database for the weather conditions in past years. The results will help you decide how hot, cold, wet, or windy it might be!

Date:

Astronomy

Feb. 16, 2013 Rise Set
Actual Time 7:07 AM EST 5:52 PM EST
Civil Twilight 6:39 AM EST 6:20 PM EST
Nautical Twilight 6:07 AM EST 6:51 PM EST
Astronomical Twilight 5:35 AM EST 7:23 PM EST
Moon 10:17 AM EST (2/16) No Moon Set
Length of Visible Light 11h 40m
Length of Day
10h 45m
Waxing Crescent, 39% of the Moon is Illuminated
Feb 16
Waxing Crescent
Feb 17
First Quarter
Feb 25
Full
Mar 4
Last Quarter
Mar 11
New

Hourly Weather History & Observations

Time (EST) Temp. Windchill Dew Point Humidity Pressure Visibility Wind Dir Wind Speed Gust Speed Precip Events Conditions
12:02 AM 24.8 °F 14.0 °F 24.8 °F 100% 29.91 in 1.0 mi NNW 11.5 mph - 0.00 in Snow Light Snow
12:07 AM 24.8 °F 15.3 °F 24.8 °F 100% 29.92 in 0.8 mi NW 9.2 mph - 0.00 in Snow Light Snow
12:09 AM 24.8 °F 14.6 °F 24.8 °F 100% 29.92 in 1.0 mi NNW 10.4 mph - 0.00 in Snow Light Snow
12:27 AM 24.8 °F 15.3 °F 23.0 °F 93% 29.92 in 2.5 mi NW 9.2 mph - 0.00 in Snow Light Snow
12:31 AM 24.8 °F 14.6 °F 23.0 °F 93% 29.92 in 3.0 mi NNW 10.4 mph - 0.00 in Snow Light Snow
12:46 AM 24.8 °F 14.0 °F 21.2 °F 86% 29.93 in 5.0 mi NNW 11.5 mph - 0.00 in Snow Light Snow
12:54 AM 25.0 °F 14.2 °F 21.9 °F 88% 30.00 in 4.0 mi NNW 11.5 mph - 0.00 in Snow Light Snow
1:30 AM 24.8 °F 17.9 °F 19.4 °F 80% 29.92 in 4.0 mi NNW 5.8 mph - 0.00 in Snow Light Snow
1:38 AM 24.8 °F 17.9 °F 21.2 °F 86% 29.92 in 6.0 mi NNW 5.8 mph - 0.00 in Snow Light Snow
1:54 AM 24.1 °F 17.0 °F 21.0 °F 88% 30.00 in 9.0 mi NW 5.8 mph - 0.00 in   Overcast
2:08 AM 24.8 °F - 21.2 °F 86% 29.92 in 10.0 mi Calm Calm - N/A   Overcast
2:17 AM 24.8 °F 19.1 °F 19.4 °F 80% 29.92 in 10.0 mi NW 4.6 mph - N/A   Overcast
2:35 AM 23.0 °F 13.1 °F 19.4 °F 86% 29.91 in 10.0 mi WNW 9.2 mph - N/A   Overcast
2:54 AM 21.9 °F 12.5 °F 18.0 °F 85% 29.99 in 10.0 mi NW 8.1 mph - N/A   Overcast
3:20 AM 21.2 °F 12.6 °F 19.4 °F 93% 29.89 in 4.0 mi NW 6.9 mph - 0.00 in Snow Light Snow
3:41 AM 21.2 °F 13.6 °F 19.4 °F 93% 29.89 in 2.5 mi WNW 5.8 mph - 0.00 in Snow Light Snow
3:54 AM 21.9 °F 12.5 °F 19.0 °F 89% 29.98 in 2.0 mi WNW 8.1 mph - 0.00 in Snow Light Snow
4:21 AM 21.2 °F 12.6 °F 19.4 °F 93% 29.89 in 1.2 mi NW 6.9 mph - 0.01 in Snow Light Snow
4:31 AM 21.2 °F 11.7 °F 17.6 °F 86% 29.89 in 1.8 mi NW 8.1 mph - 0.01 in Snow Light Snow
4:54 AM 19.9 °F 7.9 °F 17.1 °F 89% 29.99 in 1.5 mi NW 11.5 mph - 0.01 in Snow Light Snow
5:06 AM 19.4 °F 8.6 °F 17.6 °F 93% 29.90 in 2.0 mi NW 9.2 mph - 0.00 in Snow Light Snow
5:40 AM 19.4 °F 11.5 °F 17.6 °F 93% 29.90 in 3.0 mi WNW 5.8 mph - 0.00 in Snow Light Snow
5:51 AM 19.4 °F 12.8 °F 17.6 °F 93% 29.90 in 5.0 mi NW 4.6 mph - 0.00 in Snow Light Snow
5:54 AM 19.9 °F 12.1 °F 17.1 °F 89% 29.99 in 6.0 mi WNW 5.8 mph - 0.00 in Snow Light Snow
6:07 AM 19.4 °F 10.4 °F 17.6 °F 93% 29.90 in 10.0 mi NW 6.9 mph - 0.00 in   Overcast
6:39 AM 19.4 °F 11.5 °F 15.8 °F 86% 29.90 in 10.0 mi NW 5.8 mph - 0.00 in   Overcast
6:54 AM 19.0 °F 11.1 °F 16.0 °F 88% 29.99 in 10.0 mi NW 5.8 mph - 0.00 in   Overcast
7:04 AM 19.4 °F 12.8 °F 15.8 °F 86% 29.90 in 10.0 mi NW 4.6 mph - N/A   Overcast
7:18 AM 19.4 °F 14.3 °F 15.8 °F 86% 29.90 in 10.0 mi NNW 3.5 mph - N/A   Overcast
7:25 AM 19.4 °F 11.5 °F 15.8 °F 86% 29.90 in 10.0 mi NW 5.8 mph - N/A   Overcast
7:54 AM 19.0 °F - 16.0 °F 88% 30.00 in 5.0 mi Calm Calm - 0.00 in Snow Light Snow
8:08 AM 19.4 °F 12.8 °F 15.8 °F 86% 29.91 in 2.5 mi NW 4.6 mph - 0.00 in Snow Light Snow
8:24 AM 19.4 °F 12.8 °F 15.8 °F 86% 29.91 in 2.5 mi WNW 4.6 mph - 0.00 in Snow Light Snow
8:35 AM 19.4 °F 10.4 °F 15.8 °F 86% 29.91 in 2.0 mi WNW 6.9 mph - 0.00 in Snow Light Snow
8:40 AM 19.4 °F 12.8 °F 15.8 °F 86% 29.91 in 3.0 mi WNW 4.6 mph - 0.00 in Snow Light Snow
8:54 AM 19.0 °F 12.3 °F 15.1 °F 85% 30.00 in 4.0 mi WNW 4.6 mph - 0.00 in Snow Light Snow
9:12 AM 19.4 °F 14.3 °F 15.8 °F 86% 29.90 in 1.8 mi NW 3.5 mph - 0.00 in Snow Light Snow
9:38 AM 19.4 °F 11.5 °F 15.8 °F 86% 29.89 in 1.2 mi WNW 5.8 mph - 0.00 in Snow Light Snow
9:50 AM 19.4 °F 11.5 °F 15.8 °F 86% 29.89 in 1.0 mi NW 5.8 mph - 0.00 in Snow Light Snow
9:54 AM 19.9 °F 13.4 °F 16.0 °F 85% 29.98 in 1.2 mi NW 4.6 mph - 0.00 in Snow Light Snow
10:01 AM 19.4 °F 9.5 °F 15.8 °F 86% 29.89 in 1.2 mi NNW 8.1 mph - 0.00 in Snow Light Snow
10:43 AM 19.4 °F 9.5 °F 15.8 °F 86% 29.89 in 2.0 mi NW 8.1 mph - 0.00 in Snow Light Snow
10:54 AM 21.0 °F 11.4 °F 14.0 °F 74% 29.98 in 6.0 mi NNW 8.1 mph - 0.00 in   Haze
11:54 AM 21.0 °F 11.4 °F 12.9 °F 71% 29.96 in 10.0 mi WNW 8.1 mph - 0.00 in   Mostly Cloudy
12:54 PM 21.9 °F 10.4 °F 12.9 °F 68% 29.93 in 10.0 mi West 11.5 mph - N/A   Mostly Cloudy
1:54 PM 21.9 °F 11.7 °F 12.0 °F 66% 29.92 in 9.0 mi WNW 9.2 mph - N/A   Overcast
2:01 PM 21.2 °F 10.1 °F 12.2 °F 68% 29.82 in 8.0 mi NW 10.4 mph - 0.00 in Snow Light Snow
2:54 PM 21.9 °F 13.4 °F 12.9 °F 68% 29.92 in 10.0 mi NW 6.9 mph - 0.00 in   Overcast
3:17 PM 21.2 °F 10.9 °F 14.0 °F 74% 29.82 in 6.0 mi NW 9.2 mph - 0.00 in Snow Light Snow
3:30 PM 21.2 °F 10.9 °F 12.2 °F 68% 29.82 in 6.0 mi WNW 9.2 mph - 0.00 in Snow Light Snow
3:54 PM 21.0 °F 11.4 °F 14.0 °F 74% 29.91 in 6.0 mi NW 8.1 mph - 0.00 in Snow Light Snow
4:12 PM 21.2 °F 10.9 °F 14.0 °F 74% 29.82 in 2.0 mi NW 9.2 mph - 0.00 in Snow Light Snow
4:19 PM 21.2 °F 10.1 °F 15.8 °F 80% 29.82 in 1.0 mi NW 10.4 mph - 0.00 in Snow Light Snow
4:54 PM 19.0 °F 8.2 °F 15.1 °F 85% 29.93 in 0.8 mi WNW 9.2 mph - 0.00 in Snow Light Snow
5:01 PM 19.4 °F 9.5 °F 15.8 °F 86% 29.82 in 2.0 mi West 8.1 mph - 0.00 in Snow Light Snow
5:09 PM 19.4 °F 9.5 °F 15.8 °F 86% 29.82 in 6.0 mi West 8.1 mph - 0.00 in Snow Light Snow
5:28 PM 19.4 °F 11.5 °F 14.0 °F 80% 29.83 in 10.0 mi West 5.8 mph - 0.00 in   Overcast
5:47 PM 19.4 °F 8.6 °F 14.0 °F 80% 29.83 in 2.5 mi WNW 9.2 mph - 0.00 in Snow Light Snow
5:54 PM 19.9 °F 10.1 °F 15.1 °F 81% 29.93 in 1.2 mi NW 8.1 mph - 0.00 in Snow Light Snow
6:25 PM 19.4 °F 7.9 °F 15.8 °F 86% 29.83 in 0.8 mi WNW 10.4 mph - 0.00 in Snow Light Snow
6:35 PM 19.4 °F 7.9 °F 15.8 °F 86% 29.82 in 1.2 mi WNW 10.4 mph - 0.00 in Snow Light Snow
6:41 PM 19.4 °F 7.9 °F 15.8 °F 86% 29.83 in 3.0 mi WNW 10.4 mph - 0.00 in Snow Light Snow
6:48 PM 19.4 °F 7.9 °F 15.8 °F 86% 29.83 in 2.5 mi WNW 10.4 mph - 0.00 in Snow Light Snow
6:51 PM 19.4 °F 8.6 °F 15.8 °F 86% 29.83 in 1.8 mi WNW 9.2 mph - 0.00 in Snow Light Snow
6:54 PM 19.0 °F 7.5 °F 15.1 °F 85% 29.94 in 1.5 mi West 10.4 mph - 0.00 in Snow Light Snow
6:59 PM 19.4 °F 9.5 °F 15.8 °F 86% 29.83 in 2.0 mi WNW 8.1 mph - 0.00 in Snow Light Snow
7:08 PM 19.4 °F 5.0 °F 14.0 °F 80% 29.83 in 7.0 mi NW 16.1 mph 20.7 mph 0.00 in Snow Light Snow
7:34 PM 19.4 °F 6.0 °F 15.8 °F 86% 29.83 in 2.0 mi NW 13.8 mph - 0.00 in Snow Light Snow
7:38 PM 19.4 °F 6.0 °F 15.8 °F 86% 29.83 in 1.5 mi NW 13.8 mph - 0.00 in Snow Light Snow
7:50 PM 19.4 °F 6.0 °F 15.8 °F 86% 29.82 in 2.0 mi WNW 13.8 mph - 0.00 in Snow Light Snow
7:54 PM 19.0 °F 5.6 °F 16.0 °F 88% 29.93 in 2.0 mi NW 13.8 mph - 0.00 in Snow Light Snow
8:01 PM 17.6 °F 3.2 °F 15.8 °F 93% 29.82 in 3.0 mi NW 15.0 mph - 0.00 in Snow Light Snow
8:08 PM 17.6 °F 6.4 °F 14.0 °F 86% 29.82 in 7.0 mi NW 9.2 mph - 0.00 in Snow Light Snow
8:15 PM 17.6 °F 6.4 °F 14.0 °F 86% 29.82 in 9.0 mi NW 9.2 mph - 0.00 in   Overcast
8:54 PM 18.0 °F 6.9 °F 12.9 °F 81% 29.92 in 10.0 mi WNW 9.2 mph - 0.00 in   Overcast
9:38 PM 17.6 °F 9.3 °F 12.2 °F 79% 29.81 in 10.0 mi North 5.8 mph - N/A   Overcast
9:54 PM 17.1 °F 6.6 °F 12.9 °F 84% 29.91 in 10.0 mi NNW 8.1 mph - N/A   Mostly Cloudy
10:25 PM 15.8 °F 7.2 °F 12.2 °F 86% 29.80 in 10.0 mi NW 5.8 mph - N/A   Scattered Clouds
10:54 PM 15.1 °F 5.2 °F 10.9 °F 84% 29.90 in 10.0 mi NNW 6.9 mph - N/A   Clear
11:54 PM 14.0 °F 6.5 °F 10.9 °F 88% 29.89 in 10.0 mi NNW 4.6 mph - N/A   Clear